createdAt,value
2017-12-25T00:00:34.154Z,1012.76
2017-12-25T00:01:35.087Z,1012.83
2017-12-25T00:02:34.110Z,1012.81
2017-12-25T00:03:34.091Z,1012.78
2017-12-25T00:04:34.068Z,1012.81
2017-12-25T00:05:34.047Z,1012.80
2017-12-25T00:06:34.024Z,1012.84
2017-12-25T00:07:34.004Z,1012.87
2017-12-25T00:08:33.983Z,1012.80
2017-12-25T00:09:33.961Z,1012.81
2017-12-25T00:10:33.942Z,1012.84
2017-12-25T00:11:33.918Z,1012.73
2017-12-25T00:12:33.896Z,1012.77
2017-12-25T00:13:33.875Z,1012.76
2017-12-25T00:14:33.853Z,1012.76
2017-12-25T00:15:33.831Z,1012.74
2017-12-25T00:16:33.811Z,1012.74
2017-12-25T00:17:33.788Z,1012.72
2017-12-25T00:18:33.767Z,1012.70
2017-12-25T00:19:33.745Z,1012.72
2017-12-25T00:20:33.724Z,1012.74
2017-12-25T00:21:33.702Z,1012.72
2017-12-25T00:22:33.680Z,1012.75
2017-12-25T00:23:33.660Z,1012.67
2017-12-25T00:24:33.636Z,1012.75
2017-12-25T00:25:33.616Z,1012.73
2017-12-25T00:26:33.594Z,1012.68
2017-12-25T00:27:33.573Z,1012.70
2017-12-25T00:28:33.553Z,1012.64
2017-12-25T00:29:33.530Z,1012.75
2017-12-25T00:30:33.507Z,1012.71
2017-12-25T00:31:33.485Z,1012.69
2017-12-25T00:32:33.463Z,1012.67
2017-12-25T00:33:33.444Z,1012.66
2017-12-25T00:34:33.421Z,1012.69
2017-12-25T00:35:33.398Z,1012.63
2017-12-25T00:36:33.377Z,1012.64
2017-12-25T00:37:33.355Z,1012.62
2017-12-25T00:38:33.333Z,1012.62
2017-12-25T00:39:33.311Z,1012.65
2017-12-25T00:40:33.291Z,1012.64
2017-12-25T00:41:33.269Z,1012.65
2017-12-25T00:42:33.245Z,1012.68
2017-12-25T00:43:33.225Z,1012.66
2017-12-25T00:44:33.204Z,1012.62
2017-12-25T00:45:33.182Z,1012.65
2017-12-25T00:46:33.160Z,1012.61
2017-12-25T00:47:33.139Z,1012.59
2017-12-25T00:48:33.116Z,1012.62
2017-12-25T00:49:33.096Z,1012.58
2017-12-25T00:50:33.073Z,1012.59
2017-12-25T00:51:33.051Z,1012.61
2017-12-25T00:52:33.030Z,1012.52
2017-12-25T00:53:33.110Z,1012.59
2017-12-25T00:54:32.986Z,1012.52
2017-12-25T00:55:32.964Z,1012.52
2017-12-25T00:56:32.941Z,1012.54
2017-12-25T00:57:32.920Z,1012.52
2017-12-25T00:58:33.048Z,1012.50
2017-12-25T00:59:32.876Z,1012.56
2017-12-25T01:00:32.854Z,1012.66
2017-12-25T01:01:32.833Z,1012.60
2017-12-25T01:02:32.811Z,1012.57
2017-12-25T01:03:33.041Z,1012.65
2017-12-25T01:04:32.769Z,1012.59
2017-12-25T01:05:32.746Z,1012.61
2017-12-25T01:06:32.724Z,1012.65
2017-12-25T01:07:32.707Z,1012.68
2017-12-25T01:08:33.481Z,1012.73
2017-12-25T01:09:32.662Z,1012.71
2017-12-25T01:10:32.637Z,1012.60
2017-12-25T01:11:32.617Z,1012.72
2017-12-25T01:12:32.595Z,1012.71
2017-12-25T01:13:32.574Z,1012.66
2017-12-25T01:14:32.552Z,1012.67
2017-12-25T01:15:32.530Z,1012.70
2017-12-25T01:16:32.509Z,1012.70
2017-12-25T01:17:32.488Z,1012.68
2017-12-25T01:18:32.466Z,1012.65
2017-12-25T01:19:32.443Z,1012.66
2017-12-25T01:20:32.673Z,1012.66
2017-12-25T01:21:32.401Z,1012.64
2017-12-25T01:22:32.378Z,1012.63
2017-12-25T01:23:32.357Z,1012.62
2017-12-25T01:24:32.335Z,1012.68
2017-12-25T01:25:32.315Z,1012.65
2017-12-25T01:26:32.292Z,1012.64
2017-12-25T01:27:32.271Z,1012.56
2017-12-25T01:28:32.249Z,1012.58
2017-12-25T01:29:32.228Z,1012.54
2017-12-25T01:30:32.205Z,1012.56
2017-12-25T01:31:32.334Z,1012.52
2017-12-25T01:32:32.162Z,1012.55
2017-12-25T01:33:32.141Z,1012.51
2017-12-25T01:34:32.119Z,1012.45
2017-12-25T01:35:32.097Z,1012.52
2017-12-25T01:36:32.328Z,1012.53
2017-12-25T01:37:32.055Z,1012.56
2017-12-25T01:38:32.031Z,1012.57
2017-12-25T01:39:32.011Z,1012.52
2017-12-25T01:40:31.990Z,1012.53
2017-12-25T01:41:31.968Z,1012.52
2017-12-25T01:42:31.946Z,1012.48
2017-12-25T01:43:31.925Z,1012.55
2017-12-25T01:44:31.902Z,1012.57
2017-12-25T01:45:31.882Z,1012.54
2017-12-25T01:46:31.858Z,1012.50
2017-12-25T01:47:31.988Z,1012.52
2017-12-25T01:48:31.820Z,1012.51
2017-12-25T01:49:31.795Z,1012.54
2017-12-25T01:50:31.773Z,1012.55
2017-12-25T01:51:31.751Z,1012.53
2017-12-25T01:52:31.730Z,1012.51
2017-12-25T01:53:31.708Z,1012.56
2017-12-25T01:54:31.687Z,1012.54
2017-12-25T01:55:31.664Z,1012.48
2017-12-25T01:56:31.643Z,1012.57
2017-12-25T01:57:31.622Z,1012.56
2017-12-25T01:58:31.600Z,1012.53
2017-12-25T01:59:31.579Z,1012.49
2017-12-25T02:00:31.558Z,1012.45
2017-12-25T02:01:31.536Z,1012.47
2017-12-25T02:02:31.514Z,1012.52
2017-12-25T02:03:31.492Z,1012.48
2017-12-25T02:04:31.470Z,1012.47
2017-12-25T02:05:31.449Z,1012.51
2017-12-25T02:06:31.426Z,1012.45
2017-12-25T02:07:31.407Z,1012.46
2017-12-25T02:08:31.383Z,1012.41
2017-12-25T02:09:31.361Z,1012.39
2017-12-25T02:10:31.342Z,1012.37
2017-12-25T02:11:31.317Z,1012.39
2017-12-25T02:12:31.297Z,1012.31
2017-12-25T02:13:31.275Z,1012.35
2017-12-25T02:14:31.252Z,1012.32
2017-12-25T02:15:31.232Z,1012.28
2017-12-25T02:16:31.210Z,1012.29
2017-12-25T02:17:31.189Z,1012.30
2017-12-25T02:18:31.165Z,1012.31
2017-12-25T02:19:31.145Z,1012.30
2017-12-25T02:20:31.122Z,1012.36
2017-12-25T02:21:31.201Z,1012.30
2017-12-25T02:22:31.079Z,1012.35
2017-12-25T02:23:31.057Z,1012.27
2017-12-25T02:24:31.035Z,1012.27
2017-12-25T02:25:31.014Z,1012.28
2017-12-25T02:26:30.994Z,1012.32
2017-12-25T02:27:30.972Z,1012.31
2017-12-25T02:28:30.950Z,1012.27
2017-12-25T02:29:30.928Z,1012.26
2017-12-25T02:30:30.907Z,1012.22
2017-12-25T02:31:30.985Z,1012.21
2017-12-25T02:32:30.863Z,1012.14
2017-12-25T02:33:30.842Z,1012.13
2017-12-25T02:34:30.820Z,1012.10
2017-12-25T02:35:30.800Z,1012.19
2017-12-25T02:36:30.877Z,1012.17
2017-12-25T02:37:30.756Z,1012.15
2017-12-25T02:38:30.734Z,1012.14
2017-12-25T02:39:30.712Z,1012.18
2017-12-25T02:40:30.691Z,1012.16
2017-12-25T02:41:30.822Z,1012.10
2017-12-25T02:42:30.699Z,1012.12
2017-12-25T02:43:30.626Z,1012.11
2017-12-25T02:44:30.608Z,1012.05
2017-12-25T02:45:30.583Z,1012.05
2017-12-25T02:46:30.561Z,1012.05
2017-12-25T02:47:30.539Z,1012.04
2017-12-25T02:48:30.518Z,1011.95
2017-12-25T02:49:30.499Z,1011.98
2017-12-25T02:50:30.474Z,1011.97
2017-12-25T02:51:30.452Z,1011.97
2017-12-25T02:52:30.433Z,1011.97
2017-12-25T02:53:30.409Z,1012.00
2017-12-25T02:54:30.419Z,1011.98
2017-12-25T02:55:30.367Z,1011.99
2017-12-25T02:56:30.345Z,1011.96
2017-12-25T02:57:30.323Z,1011.96
2017-12-25T02:58:30.300Z,1012.01
2017-12-25T02:59:30.281Z,1012.03
2017-12-25T03:00:30.258Z,1011.96
2017-12-25T03:01:30.237Z,1011.92
2017-12-25T03:02:30.213Z,1011.93
2017-12-25T03:03:30.193Z,1011.90
2017-12-25T03:04:30.172Z,1011.92
2017-12-25T03:05:30.150Z,1011.93
2017-12-25T03:06:30.128Z,1011.90
2017-12-25T03:07:30.106Z,1011.95
2017-12-25T03:08:30.336Z,1011.92
2017-12-25T03:09:30.064Z,1011.94
2017-12-25T03:10:30.041Z,1011.88
2017-12-25T03:11:30.020Z,1011.85
2017-12-25T03:12:29.998Z,1011.96
2017-12-25T03:13:29.976Z,1011.95
2017-12-25T03:14:29.953Z,1011.91
2017-12-25T03:15:29.936Z,1011.95
2017-12-25T03:16:29.910Z,1011.92
2017-12-25T03:17:29.889Z,1011.84
2017-12-25T03:18:29.866Z,1011.87
2017-12-25T03:19:29.844Z,1011.84
2017-12-25T03:20:29.824Z,1011.85
2017-12-25T03:21:29.801Z,1011.87
2017-12-25T03:22:29.780Z,1011.90
2017-12-25T03:23:29.758Z,1011.93
2017-12-25T03:24:29.737Z,1011.89
2017-12-25T03:25:29.716Z,1011.89
2017-12-25T03:26:29.692Z,1011.87
2017-12-25T03:27:29.674Z,1011.95
2017-12-25T03:28:29.650Z,1011.89
2017-12-25T03:29:29.629Z,1011.89
2017-12-25T03:30:29.607Z,1011.91
2017-12-25T03:31:29.584Z,1011.90
2017-12-25T03:32:29.562Z,1011.82
2017-12-25T03:33:29.544Z,1011.91
2017-12-25T03:34:29.519Z,1011.83
2017-12-25T03:35:29.499Z,1011.80
2017-12-25T03:36:29.477Z,1011.85
2017-12-25T03:37:29.456Z,1011.82
2017-12-25T03:38:29.432Z,1011.88
2017-12-25T03:39:29.412Z,1011.77
2017-12-25T03:40:29.391Z,1011.78
2017-12-25T03:41:29.368Z,1011.80
2017-12-25T03:42:29.346Z,1011.81
2017-12-25T03:43:29.325Z,1011.78
2017-12-25T03:44:29.304Z,1011.83
2017-12-25T03:45:29.283Z,1011.78
2017-12-25T03:46:29.259Z,1011.79
2017-12-25T03:47:29.239Z,1011.76
2017-12-25T03:48:29.217Z,1011.83
2017-12-25T03:49:29.195Z,1011.76
2017-12-25T03:50:29.174Z,1011.82
2017-12-25T03:51:29.151Z,1011.80
2017-12-25T03:52:29.131Z,1011.77
2017-12-25T03:53:29.108Z,1011.76
2017-12-25T03:54:29.114Z,1011.75
2017-12-25T03:55:29.067Z,1011.82
2017-12-25T03:56:29.044Z,1011.82
2017-12-25T03:57:29.022Z,1011.76
2017-12-25T03:58:29.001Z,1011.81
2017-12-25T03:59:28.979Z,1011.82
2017-12-25T04:00:28.957Z,1011.79
2017-12-25T04:01:28.936Z,1011.74
2017-12-25T04:02:28.913Z,1011.70
2017-12-25T04:03:28.891Z,1011.72
2017-12-25T04:04:28.870Z,1011.71
2017-12-25T04:05:28.850Z,1011.69
2017-12-25T04:06:29.076Z,1011.62
2017-12-25T04:07:28.804Z,1011.69
2017-12-25T04:08:28.783Z,1011.70
2017-12-25T04:09:28.761Z,1011.64
2017-12-25T04:10:28.739Z,1011.67
2017-12-25T04:11:28.718Z,1011.67
2017-12-25T04:12:28.697Z,1011.63
2017-12-25T04:13:28.675Z,1011.66
2017-12-25T04:14:28.653Z,1011.70
2017-12-25T04:15:28.631Z,1011.64
2017-12-25T04:16:28.859Z,1011.64
2017-12-25T04:17:28.587Z,1011.64
2017-12-25T04:18:28.567Z,1011.64
2017-12-25T04:19:28.545Z,1011.60
2017-12-25T04:20:28.525Z,1011.59
2017-12-25T04:21:28.501Z,1011.52
2017-12-25T04:22:28.480Z,1011.57
2017-12-25T04:23:28.908Z,1011.64
2017-12-25T04:24:28.437Z,1011.56
2017-12-25T04:25:28.416Z,1011.53
2017-12-25T04:26:28.392Z,1011.57
2017-12-25T04:27:28.370Z,1011.56
2017-12-25T04:28:28.351Z,1011.46
2017-12-25T04:29:28.332Z,1011.54
2017-12-25T04:30:28.306Z,1011.53
2017-12-25T04:31:28.287Z,1011.48
2017-12-25T04:32:28.263Z,1011.54
2017-12-25T04:33:28.241Z,1011.48
2017-12-25T04:34:28.220Z,1011.53
2017-12-25T04:35:28.197Z,1011.48
2017-12-25T04:36:28.176Z,1011.47
2017-12-25T04:37:28.155Z,1011.46
2017-12-25T04:38:28.383Z,1011.48
2017-12-25T04:39:28.111Z,1011.50
2017-12-25T04:40:28.089Z,1011.43
2017-12-25T04:41:28.068Z,1011.50
2017-12-25T04:42:28.045Z,1011.45
2017-12-25T04:43:28.024Z,1011.49
2017-12-25T04:44:28.003Z,1011.49
2017-12-25T04:45:27.980Z,1011.49
2017-12-25T04:46:27.959Z,1011.45
2017-12-25T04:47:27.938Z,1011.48
2017-12-25T04:48:27.916Z,1011.46
2017-12-25T04:49:28.046Z,1011.45
2017-12-25T04:50:27.872Z,1011.49
2017-12-25T04:51:27.851Z,1011.45
2017-12-25T04:52:27.829Z,1011.45
2017-12-25T04:53:27.807Z,1011.44
2017-12-25T04:54:27.785Z,1011.45
2017-12-25T04:55:27.765Z,1011.46
2017-12-25T04:56:27.748Z,1011.45
2017-12-25T04:57:27.722Z,1011.45
2017-12-25T04:58:27.700Z,1011.40
2017-12-25T04:59:27.679Z,1011.45
2017-12-25T05:00:27.656Z,1011.43
2017-12-25T05:01:27.636Z,1011.47
2017-12-25T05:02:28.414Z,1011.44
2017-12-25T05:03:27.592Z,1011.42
2017-12-25T05:04:27.570Z,1011.45
2017-12-25T05:05:27.548Z,1011.44
2017-12-25T05:06:27.526Z,1011.43
2017-12-25T05:07:27.609Z,1011.45
2017-12-25T05:08:27.484Z,1011.40
2017-12-25T05:09:27.463Z,1011.49
2017-12-25T05:10:27.441Z,1011.46
2017-12-25T05:11:27.419Z,1011.44
2017-12-25T05:12:27.397Z,1011.43
2017-12-25T05:13:27.377Z,1011.34
2017-12-25T05:14:27.354Z,1011.39
2017-12-25T05:15:27.332Z,1011.37
2017-12-25T05:16:27.312Z,1011.39
2017-12-25T05:17:27.289Z,1011.29
2017-12-25T05:18:27.275Z,1011.39
2017-12-25T05:19:27.246Z,1011.44
2017-12-25T05:20:27.225Z,1011.38
2017-12-25T05:21:27.455Z,1011.40
2017-12-25T05:22:27.181Z,1011.37
2017-12-25T05:23:27.159Z,1011.32
2017-12-25T05:24:27.139Z,1011.34
2017-12-25T05:25:27.117Z,1011.35
2017-12-25T05:26:27.094Z,1011.26
2017-12-25T05:27:27.072Z,1011.25
2017-12-25T05:28:27.051Z,1011.28
2017-12-25T05:29:27.030Z,1011.34
2017-12-25T05:30:27.008Z,1011.27
2017-12-25T05:31:27.137Z,1011.35
2017-12-25T05:32:26.966Z,1011.35
2017-12-25T05:33:26.944Z,1011.30
2017-12-25T05:34:26.922Z,1011.26
2017-12-25T05:35:26.906Z,1011.25
2017-12-25T05:36:26.878Z,1011.30
2017-12-25T05:37:26.857Z,1011.29
2017-12-25T05:38:26.834Z,1011.32
2017-12-25T05:39:26.913Z,1011.23
2017-12-25T05:40:26.838Z,1011.27
2017-12-25T05:41:26.771Z,1011.21
2017-12-25T05:42:26.749Z,1011.26
2017-12-25T05:43:26.727Z,1011.23
2017-12-25T05:44:26.957Z,1011.22
2017-12-25T05:45:26.685Z,1011.19
2017-12-25T05:46:26.662Z,1011.24
2017-12-25T05:47:26.640Z,1011.24
2017-12-25T05:48:26.619Z,1011.25
2017-12-25T05:49:26.747Z,1011.27
2017-12-25T05:50:26.575Z,1011.18
2017-12-25T05:51:26.555Z,1011.22
2017-12-25T05:52:26.533Z,1011.19
2017-12-25T05:53:26.511Z,1011.19
2017-12-25T05:54:26.589Z,1011.18
2017-12-25T05:55:26.467Z,1011.22
2017-12-25T05:56:26.446Z,1011.14
2017-12-25T05:57:26.424Z,1011.10
2017-12-25T05:58:26.402Z,1011.14
2017-12-25T05:59:26.381Z,1011.20
2017-12-25T06:00:26.359Z,1011.17
2017-12-25T06:01:26.338Z,1011.23
2017-12-25T06:02:26.315Z,1011.13
2017-12-25T06:03:26.594Z,1011.19
2017-12-25T06:04:26.273Z,1011.16
2017-12-25T06:05:26.250Z,1011.13
2017-12-25T06:06:26.228Z,1011.13
2017-12-25T06:07:26.208Z,1011.15
2017-12-25T06:08:26.186Z,1011.17
2017-12-25T06:09:26.166Z,1011.14
2017-12-25T06:10:26.142Z,1011.07
2017-12-25T06:11:26.121Z,1011.13
2017-12-25T06:12:26.102Z,1011.12
2017-12-25T06:13:26.077Z,1011.09
2017-12-25T06:14:26.055Z,1011.15
2017-12-25T06:15:26.283Z,1011.15
2017-12-25T06:16:26.011Z,1011.17
2017-12-25T06:17:25.990Z,1011.06
2017-12-25T06:18:25.968Z,1011.17
2017-12-25T06:19:25.952Z,1011.11
2017-12-25T06:20:26.075Z,1011.14
2017-12-25T06:21:25.903Z,1011.13
2017-12-25T06:22:25.882Z,1011.29
2017-12-25T06:23:25.860Z,1011.21
2017-12-25T06:24:25.841Z,1011.22
2017-12-25T06:25:25.817Z,1011.25
2017-12-25T06:26:25.795Z,1011.26
2017-12-25T06:27:25.773Z,1011.18
2017-12-25T06:28:25.751Z,1011.14
2017-12-25T06:29:25.730Z,1011.17
2017-12-25T06:30:25.708Z,1011.20
2017-12-25T06:31:25.837Z,1011.15
2017-12-25T06:32:25.665Z,1011.20
2017-12-25T06:33:25.645Z,1011.15
2017-12-25T06:34:25.623Z,1011.17
2017-12-25T06:35:25.601Z,1011.19
2017-12-25T06:36:25.579Z,1011.18
2017-12-25T06:37:25.557Z,1011.12
2017-12-25T06:38:25.535Z,1011.13
2017-12-25T06:39:25.517Z,1011.09
2017-12-25T06:40:25.493Z,1011.10
2017-12-25T06:41:25.470Z,1011.10
2017-12-25T06:42:25.449Z,1011.11
2017-12-25T06:43:25.430Z,1011.12
2017-12-25T06:44:25.406Z,1011.21
2017-12-25T06:45:25.384Z,1011.25
2017-12-25T06:46:25.361Z,1011.19
2017-12-25T06:47:25.641Z,1011.19
2017-12-25T06:48:25.317Z,1011.24
2017-12-25T06:49:25.305Z,1011.19
2017-12-25T06:50:25.274Z,1011.15
2017-12-25T06:51:25.252Z,1011.13
2017-12-25T06:52:25.231Z,1011.17
2017-12-25T06:53:25.211Z,1011.07
2017-12-25T06:54:25.188Z,1011.09
2017-12-25T06:55:25.167Z,1011.06
2017-12-25T06:56:25.145Z,1011.09
2017-12-25T06:57:25.373Z,1011.05
2017-12-25T06:58:25.101Z,1010.99
2017-12-25T06:59:25.079Z,1010.97
2017-12-25T07:00:25.056Z,1011.02
2017-12-25T07:01:25.035Z,1010.95
2017-12-25T07:02:25.813Z,1011.01
2017-12-25T07:03:24.993Z,1010.99
2017-12-25T07:04:24.968Z,1010.97
2017-12-25T07:05:24.948Z,1010.96
2017-12-25T07:06:24.926Z,1010.98
2017-12-25T07:07:25.004Z,1010.92
2017-12-25T07:08:24.881Z,1010.90
2017-12-25T07:09:24.860Z,1010.94
2017-12-25T07:10:24.837Z,1010.94
2017-12-25T07:11:24.816Z,1010.93
2017-12-25T07:12:25.044Z,1010.92
2017-12-25T07:13:24.772Z,1011.02
2017-12-25T07:14:24.749Z,1010.99
2017-12-25T07:15:24.726Z,1010.93
2017-12-25T07:16:24.705Z,1010.94
2017-12-25T07:17:24.683Z,1010.90
2017-12-25T07:18:24.661Z,1010.95
2017-12-25T07:19:24.639Z,1010.92
2017-12-25T07:20:24.616Z,1010.91
2017-12-25T07:21:24.594Z,1010.88
2017-12-25T07:22:24.571Z,1010.86
2017-12-25T07:23:24.553Z,1010.94
2017-12-25T07:24:24.527Z,1010.85
2017-12-25T07:25:24.506Z,1010.83
2017-12-25T07:26:24.483Z,1010.82
2017-12-25T07:27:24.462Z,1010.86
2017-12-25T07:28:24.439Z,1010.87
2017-12-25T07:29:24.418Z,1010.85
2017-12-25T07:30:24.395Z,1010.82
2017-12-25T07:31:24.374Z,1010.88
2017-12-25T07:32:24.351Z,1010.96
2017-12-25T07:33:24.330Z,1010.89
2017-12-25T07:34:24.306Z,1010.94
2017-12-25T07:35:24.284Z,1010.91
2017-12-25T07:36:24.261Z,1010.96
2017-12-25T07:37:24.240Z,1010.95
2017-12-25T07:38:24.219Z,1010.90
2017-12-25T07:39:24.195Z,1010.93
2017-12-25T07:40:24.173Z,1010.93
2017-12-25T07:41:24.152Z,1010.89
2017-12-25T07:42:24.129Z,1010.91
2017-12-25T07:43:24.107Z,1010.89
2017-12-25T07:44:24.084Z,1010.92
2017-12-25T07:45:24.068Z,1010.89
2017-12-25T07:46:24.040Z,1010.90
2017-12-25T07:47:24.019Z,1010.84
2017-12-25T07:48:24.147Z,1010.85
2017-12-25T07:49:23.975Z,1010.91
2017-12-25T07:50:23.952Z,1010.90
2017-12-25T07:51:23.929Z,1010.92
2017-12-25T07:52:23.908Z,1010.85
2017-12-25T07:53:23.885Z,1010.86
2017-12-25T07:54:23.863Z,1010.80
2017-12-25T07:55:23.842Z,1010.82
2017-12-25T07:56:23.820Z,1010.86
2017-12-25T07:57:23.798Z,1010.83
2017-12-25T07:58:23.775Z,1010.84
2017-12-25T07:59:23.753Z,1010.83
2017-12-25T08:00:23.730Z,1010.82
2017-12-25T08:01:23.709Z,1010.80
2017-12-25T08:02:23.687Z,1010.80
2017-12-25T08:03:23.663Z,1010.85
2017-12-25T08:04:23.642Z,1010.80
2017-12-25T08:05:23.619Z,1010.85
2017-12-25T08:06:23.599Z,1010.84
2017-12-25T08:07:23.581Z,1010.84
2017-12-25T08:08:23.553Z,1010.86
2017-12-25T08:09:23.533Z,1010.78
2017-12-25T08:10:23.507Z,1010.86
2017-12-25T08:11:23.486Z,1010.87
2017-12-25T08:12:23.464Z,1010.87
2017-12-25T08:13:23.447Z,1010.83
2017-12-25T08:14:23.418Z,1010.88
2017-12-25T08:15:23.396Z,1010.84
2017-12-25T08:16:23.376Z,1010.87
2017-12-25T08:17:23.353Z,1010.95
2017-12-25T08:18:23.331Z,1010.92
2017-12-25T08:19:23.308Z,1010.96
2017-12-25T08:20:23.287Z,1010.86
2017-12-25T08:21:23.265Z,1010.94
2017-12-25T08:22:23.242Z,1010.86
2017-12-25T08:23:23.220Z,1010.89
2017-12-25T08:24:23.198Z,1010.91
2017-12-25T08:25:23.177Z,1010.92
2017-12-25T08:26:23.156Z,1010.92
2017-12-25T08:27:23.133Z,1010.92
2017-12-25T08:28:23.113Z,1010.90
2017-12-25T08:29:23.088Z,1010.89
2017-12-25T08:30:23.064Z,1010.86
2017-12-25T08:31:23.043Z,1010.85
2017-12-25T08:32:23.022Z,1010.86
2017-12-25T08:33:22.999Z,1010.84
2017-12-25T08:34:22.977Z,1010.91
2017-12-25T08:35:22.956Z,1010.84
2017-12-25T08:36:22.933Z,1010.87
2017-12-25T08:37:22.962Z,1010.91
2017-12-25T08:38:22.890Z,1010.80
2017-12-25T08:39:22.868Z,1010.78
2017-12-25T08:40:22.846Z,1010.87
2017-12-25T08:41:22.824Z,1010.80
2017-12-25T08:42:22.803Z,1010.90
2017-12-25T08:43:22.781Z,1010.80
2017-12-25T08:44:22.759Z,1010.76
2017-12-25T08:45:22.736Z,1010.83
2017-12-25T08:46:22.714Z,1010.74
2017-12-25T08:47:22.692Z,1010.80
2017-12-25T08:48:22.671Z,1010.78
2017-12-25T08:49:22.650Z,1010.79
2017-12-25T08:50:22.627Z,1010.77
2017-12-25T08:51:22.608Z,1010.80
2017-12-25T08:52:22.583Z,1010.81
2017-12-25T08:53:22.561Z,1010.81
2017-12-25T08:54:22.540Z,1010.81
2017-12-25T08:55:22.518Z,1010.80
2017-12-25T08:56:22.645Z,1010.74
2017-12-25T08:57:22.475Z,1010.76
2017-12-25T08:58:22.452Z,1010.77
2017-12-25T08:59:22.431Z,1010.82
2017-12-25T09:00:22.410Z,1010.88
2017-12-25T09:01:22.388Z,1010.80
2017-12-25T09:02:22.368Z,1010.85
2017-12-25T09:03:22.344Z,1010.84
2017-12-25T09:04:22.323Z,1010.80
2017-12-25T09:05:22.551Z,1010.89
2017-12-25T09:06:22.278Z,1010.81
2017-12-25T09:07:22.257Z,1010.80
2017-12-25T09:08:22.237Z,1010.74
2017-12-25T09:09:22.215Z,1010.88
2017-12-25T09:10:22.192Z,1010.87
2017-12-25T09:11:22.170Z,1010.79
2017-12-25T09:12:22.150Z,1010.80
2017-12-25T09:13:22.128Z,1010.81
2017-12-25T09:14:22.105Z,1010.85
2017-12-25T09:15:22.083Z,1010.82
2017-12-25T09:16:22.062Z,1010.82
2017-12-25T09:17:22.041Z,1010.92
2017-12-25T09:18:22.020Z,1010.90
2017-12-25T09:19:21.998Z,1010.93
2017-12-25T09:20:21.976Z,1010.88
2017-12-25T09:21:21.954Z,1010.93
2017-12-25T09:22:21.933Z,1010.92
2017-12-25T09:23:21.911Z,1010.91
2017-12-25T09:24:21.889Z,1010.98
2017-12-25T09:25:21.867Z,1010.92
2017-12-25T09:26:21.845Z,1010.89
2017-12-25T09:27:22.073Z,1010.96
2017-12-25T09:28:21.805Z,1010.96
2017-12-25T09:29:21.782Z,1011.01
2017-12-25T09:30:21.760Z,1010.94
2017-12-25T09:31:21.737Z,1010.98
2017-12-25T09:32:21.717Z,1011.00
2017-12-25T09:33:21.695Z,1011.02
2017-12-25T09:34:21.672Z,1011.01
2017-12-25T09:35:21.651Z,1010.99
2017-12-25T09:36:21.628Z,1010.99
2017-12-25T09:37:21.608Z,1010.96
2017-12-25T09:38:21.585Z,1010.94
2017-12-25T09:39:21.565Z,1010.92
2017-12-25T09:40:21.545Z,1010.92
2017-12-25T09:41:21.522Z,1010.97
2017-12-25T09:42:21.748Z,1010.97
2017-12-25T09:43:21.478Z,1010.89
2017-12-25T09:44:21.455Z,1010.86
2017-12-25T09:45:21.436Z,1010.92
2017-12-25T09:46:21.411Z,1010.92
2017-12-25T09:47:21.391Z,1010.92
2017-12-25T09:48:22.170Z,1010.86
2017-12-25T09:49:21.348Z,1010.83
2017-12-25T09:50:21.327Z,1010.89
2017-12-25T09:51:21.305Z,1010.83
2017-12-25T09:52:21.283Z,1010.87
2017-12-25T09:53:21.262Z,1010.78
2017-12-25T09:54:21.240Z,1010.80
2017-12-25T09:55:21.218Z,1010.86
2017-12-25T09:56:21.196Z,1010.85
2017-12-25T09:57:21.175Z,1010.81
2017-12-25T09:58:21.303Z,1010.89
2017-12-25T09:59:21.130Z,1010.81
2017-12-25T10:00:21.109Z,1010.78
2017-12-25T10:01:21.089Z,1010.80
2017-12-25T10:02:21.066Z,1010.82
2017-12-25T10:03:21.046Z,1010.82
2017-12-25T10:04:21.023Z,1010.80
2017-12-25T10:05:21.002Z,1010.79
2017-12-25T10:06:20.980Z,1010.73
2017-12-25T10:07:20.959Z,1010.78
2017-12-25T10:08:20.937Z,1010.70
2017-12-25T10:09:20.916Z,1010.68
2017-12-25T10:10:20.894Z,1010.68
2017-12-25T10:11:20.872Z,1010.66
2017-12-25T10:12:20.852Z,1010.66
2017-12-25T10:13:20.930Z,1010.64
2017-12-25T10:14:20.807Z,1010.66
2017-12-25T10:15:20.792Z,1010.66
2017-12-25T10:16:20.766Z,1010.70
2017-12-25T10:17:20.746Z,1010.62
2017-12-25T10:18:20.871Z,1010.67
2017-12-25T10:19:20.700Z,1010.65
2017-12-25T10:20:20.680Z,1010.59
2017-12-25T10:21:20.658Z,1010.62
2017-12-25T10:22:20.635Z,1010.56
2017-12-25T10:23:21.415Z,1010.65
2017-12-25T10:24:20.594Z,1010.57
2017-12-25T10:25:20.571Z,1010.61
2017-12-25T10:26:20.550Z,1010.54
2017-12-25T10:27:20.530Z,1010.61
2017-12-25T10:28:20.510Z,1010.60
2017-12-25T10:29:20.485Z,1010.59
2017-12-25T10:30:20.464Z,1010.56
2017-12-25T10:31:20.442Z,1010.55
2017-12-25T10:32:20.422Z,1010.58
2017-12-25T10:33:20.401Z,1010.61
2017-12-25T10:34:20.382Z,1010.61
2017-12-25T10:35:21.159Z,1010.64
2017-12-25T10:36:20.338Z,1010.62
2017-12-25T10:37:20.316Z,1010.57
2017-12-25T10:38:20.294Z,1010.61
2017-12-25T10:39:20.273Z,1010.52
2017-12-25T10:40:20.401Z,1010.56
2017-12-25T10:41:20.229Z,1010.51
2017-12-25T10:42:20.212Z,1010.48
2017-12-25T10:43:20.187Z,1010.42
2017-12-25T10:44:20.165Z,1010.43
2017-12-25T10:45:20.144Z,1010.42
2017-12-25T10:46:20.123Z,1010.45
2017-12-25T10:47:20.100Z,1010.41
2017-12-25T10:48:20.080Z,1010.42
2017-12-25T10:49:20.060Z,1010.40
2017-12-25T10:50:20.039Z,1010.38
2017-12-25T10:51:20.015Z,1010.34
2017-12-25T10:52:19.993Z,1010.32
2017-12-25T10:53:19.973Z,1010.34
2017-12-25T10:54:19.949Z,1010.32
2017-12-25T10:55:19.929Z,1010.33
2017-12-25T10:56:19.907Z,1010.41
2017-12-25T10:57:19.889Z,1010.35
2017-12-25T10:58:19.865Z,1010.29
2017-12-25T10:59:19.843Z,1010.36
2017-12-25T11:00:19.822Z,1010.30
2017-12-25T11:01:19.802Z,1010.26
2017-12-25T11:02:19.778Z,1010.34
2017-12-25T11:03:19.757Z,1010.32
2017-12-25T11:04:19.737Z,1010.28
2017-12-25T11:05:19.715Z,1010.27
2017-12-25T11:06:19.794Z,1010.29
2017-12-25T11:07:19.672Z,1010.34
2017-12-25T11:08:19.651Z,1010.28
2017-12-25T11:09:19.629Z,1010.27
2017-12-25T11:10:19.608Z,1010.30
2017-12-25T11:11:19.686Z,1010.27
2017-12-25T11:12:19.564Z,1010.25
2017-12-25T11:13:19.542Z,1010.24
2017-12-25T11:14:19.521Z,1010.21
2017-12-25T11:15:19.500Z,1010.23
2017-12-25T11:16:19.778Z,1010.19
2017-12-25T11:17:19.457Z,1010.16
2017-12-25T11:18:19.435Z,1010.25
2017-12-25T11:19:19.413Z,1010.18
2017-12-25T11:20:19.392Z,1010.14
2017-12-25T11:21:19.370Z,1010.16
2017-12-25T11:22:19.347Z,1010.10
2017-12-25T11:23:19.327Z,1010.13
2017-12-25T11:24:19.305Z,1010.06
2017-12-25T11:25:19.284Z,1010.03
2017-12-25T11:26:19.413Z,1010.07
2017-12-25T11:27:19.241Z,1010.07
2017-12-25T11:28:19.220Z,1010.08
2017-12-25T11:29:19.199Z,1010.04
2017-12-25T11:30:19.175Z,1009.97
2017-12-25T11:31:19.405Z,1009.99
2017-12-25T11:32:19.135Z,1009.95
2017-12-25T11:33:19.112Z,1009.94
2017-12-25T11:34:19.091Z,1009.89
2017-12-25T11:35:19.068Z,1009.86
2017-12-25T11:36:19.198Z,1009.86
2017-12-25T11:37:19.025Z,1009.86
2017-12-25T11:38:19.005Z,1009.85
2017-12-25T11:39:18.983Z,1009.85
2017-12-25T11:40:18.962Z,1009.82
2017-12-25T11:41:18.941Z,1009.80
2017-12-25T11:42:18.918Z,1009.84
2017-12-25T11:43:18.900Z,1009.86
2017-12-25T11:44:18.876Z,1009.75
2017-12-25T11:45:18.857Z,1009.78
2017-12-25T11:46:18.833Z,1009.83
2017-12-25T11:47:18.811Z,1009.76
2017-12-25T11:48:18.791Z,1009.83
2017-12-25T11:49:18.776Z,1009.77
2017-12-25T11:50:18.748Z,1009.80
2017-12-25T11:51:18.737Z,1009.80
2017-12-25T11:52:18.705Z,1009.78
2017-12-25T11:53:18.685Z,1009.80
2017-12-25T11:54:18.662Z,1009.79
2017-12-25T11:55:18.641Z,1009.77
2017-12-25T11:56:18.619Z,1009.78
2017-12-25T11:57:18.598Z,1009.78
2017-12-25T11:58:18.577Z,1009.81
2017-12-25T11:59:18.555Z,1009.75
2017-12-25T12:00:18.685Z,1009.70
2017-12-25T12:01:18.516Z,1009.71
2017-12-25T12:02:18.491Z,1009.73
2017-12-25T12:03:18.470Z,1009.76
2017-12-25T12:04:18.452Z,1009.66
2017-12-25T12:05:18.432Z,1009.67